Photometre #849[NE_1.6_Dp] Loftus_MO AOT

File : 20210609_849.hum

09/06/2021,04:47:08,TEMP=25.6,BA=6.16,STAT.A,ExtBa=14.40
09/06/2021,04:52:06,TEMP=26.1,BA=6.12,STAT.A,ExtBa=14.10
09/06/2021,04:57:51,TEMP=26.2,BA=6.12,STAT.A,ExtBa=14.40
09/06/2021,05:04:36,TEMP=26.4,BA=6.12,STAT.A,ExtBa=14.40
09/06/2021,05:12:38,TEMP=26.6,BA=6.16,STAT.A,ExtBa=14.40
09/06/2021,05:22:20,TEMP=26.9,BA=5.84,STAT.A,ExtBa=14.10
09/06/2021,05:34:22,TEMP=25.2,BA=5.72,STAT.B,ExtBa=13.90
09/06/2021,05:40:03,TEMP=24.8,BA=5.68,STAT.A,ExtBa=13.80
09/06/2021,05:46:20,TEMP=24.6,BA=5.68,STAT.A,ExtBa=13.80
09/06/2021,05:53:21,TEMP=24.5,BA=5.68,STAT.A,ExtBa=13.90
09/06/2021,06:01:14,TEMP=24.3,BA=5.68,STAT.A,ExtBa=13.80
09/06/2021,06:10:11,TEMP=24.6,BA=5.68,STAT.C,ExtBa=14.00
09/06/2021,06:20:25,TEMP=24.5,BA=5.76,STAT.A,ExtBa=14.00
09/06/2021,06:32:16,TEMP=23.8,BA=5.68,STAT.A,ExtBa=13.90
09/06/2021,06:46:11,TEMP=23.8,BA=5.72,STAT.A,ExtBa=13.90
09/06/2021,07:02:51,TEMP=23.1,BA=5.68,STAT.A,ExtBa=13.80
09/06/2021,07:23:18,TEMP=23.1,BA=5.72,STAT.B,ExtBa=13.80
09/06/2021,08:05:13,TEMP=24.4,BA=5.76,STAT.B,ExtBa=14.00
09/06/2021,08:17:55,TEMP=24.3,BA=5.76,STAT.D,ExtBa=13.80
09/06/2021,08:32:55,TEMP=22.8,BA=5.68,STAT.D,ExtBa=13.60
09/06/2021,08:47:55,TEMP=22.2,BA=5.68,STAT.D,ExtBa=13.50
09/06/2021,09:02:38,STAT.r
09/06/2021,09:17:37,STAT.r
09/06/2021,09:32:37,STAT.r
09/06/2021,09:47:38,STAT.r
09/06/2021,10:02:37,STAT.r
09/06/2021,10:07:32,STAT.r
09/06/2021,10:17:37,STAT.r
09/06/2021,10:32:37,STAT.r
09/06/2021,10:47:55,TEMP=17.4,BA=5.64,STAT.D,ExtBa=13.00
09/06/2021,11:02:57,TEMP=18.1,BA=5.68,STAT.F,ExtBa=13.00
09/06/2021,11:17:56,TEMP=18.4,BA=5.64,STAT.D,ExtBa=12.90
09/06/2021,11:32:56,TEMP=18.5,BA=5.68,STAT.D,ExtBa=12.90
09/06/2021,11:47:56,TEMP=18.8,BA=5.68,STAT.D,ExtBa=12.90
09/06/2021,12:02:57,TEMP=19.3,BA=5.68,STAT.F,ExtBa=13.20
09/06/2021,12:17:56,TEMP=19.1,BA=5.68,STAT.D,ExtBa=13.40
09/06/2021,12:32:56,TEMP=19.3,BA=5.68,STAT.D,ExtBa=13.80
09/06/2021,12:47:55,TEMP=19.9,BA=5.80,STAT.D,ExtBa=14.10
09/06/2021,13:02:57,TEMP=20.3,BA=6.12,STAT.F,ExtBa=14.30
09/06/2021,13:17:56,TEMP=20.8,BA=6.24,STAT.D,ExtBa=14.40
09/06/2021,13:32:55,TEMP=21.5,BA=6.00,STAT.D,ExtBa=14.30
09/06/2021,13:47:55,TEMP=21.4,BA=6.08,STAT.D,ExtBa=14.30
09/06/2021,14:02:57,TEMP=20.4,BA=5.84,STAT.F,ExtBa=14.30
09/06/2021,14:17:55,TEMP=20.2,BA=5.84,STAT.D,ExtBa=14.20
09/06/2021,14:32:55,TEMP=20.0,BA=5.80,STAT.D,ExtBa=14.20
09/06/2021,14:47:55,TEMP=20.4,BA=5.84,STAT.D,ExtBa=14.10
09/06/2021,15:02:57,TEMP=20.4,BA=6.08,STAT.F,ExtBa=14.20
09/06/2021,15:17:55,TEMP=20.6,BA=5.72,STAT.D,ExtBa=14.40
09/06/2021,15:32:55,TEMP=21.3,BA=6.16,STAT.D,ExtBa=14.50
09/06/2021,15:47:55,TEMP=21.8,BA=6.36,STAT.D,ExtBa=14.40
09/06/2021,16:00:39,TEMP=21.9,BA=5.88,STAT.B,ExtBa=14.30
09/06/2021,16:42:34,TEMP=22.1,BA=6.16,STAT.B,ExtBa=14.40
09/06/2021,17:03:01,TEMP=23.0,BA=6.32,STAT.A,ExtBa=14.40